sensor_id;sensor_type;location;lat;lon;timestamp;P1;durP1;ratioP1;P2;durP2;ratioP2
54683;SDS011;40582;53.100;6.686;2023-05-07T00:01:38;22.42;;;19.45;;
54683;SDS011;40582;53.100;6.686;2023-05-07T00:04:05;24.75;;;17.45;;
54683;SDS011;40582;53.100;6.686;2023-05-07T00:06:31;30.73;;;21.27;;
54683;SDS011;40582;53.100;6.686;2023-05-07T00:08:58;34.35;;;21.70;;
54683;SDS011;40582;53.100;6.686;2023-05-07T00:11:24;29.13;;;20.70;;
54683;SDS011;40582;53.100;6.686;2023-05-07T00:13:51;27.90;;;20.67;;
54683;SDS011;40582;53.100;6.686;2023-05-07T00:16:16;27.38;;;20.63;;
54683;SDS011;40582;53.100;6.686;2023-05-07T00:18:42;27.95;;;19.95;;
54683;SDS011;40582;53.100;6.686;2023-05-07T00:21:08;27.45;;;20.15;;
54683;SDS011;40582;53.100;6.686;2023-05-07T00:23:34;23.35;;;20.20;;
54683;SDS011;40582;53.100;6.686;2023-05-07T00:25:59;30.33;;;21.88;;
54683;SDS011;40582;53.100;6.686;2023-05-07T00:28:25;31.88;;;21.80;;
54683;SDS011;40582;53.100;6.686;2023-05-07T00:30:51;33.58;;;23.27;;
54683;SDS011;40582;53.100;6.686;2023-05-07T00:33:17;31.13;;;23.27;;
54683;SDS011;40582;53.100;6.686;2023-05-07T00:35:43;29.88;;;22.00;;
54683;SDS011;40582;53.100;6.686;2023-05-07T00:38:09;32.95;;;22.63;;
54683;SDS011;40582;53.100;6.686;2023-05-07T00:40:35;29.13;;;20.98;;
54683;SDS011;40582;53.100;6.686;2023-05-07T00:43:00;33.38;;;22.38;;
54683;SDS011;40582;53.100;6.686;2023-05-07T00:45:26;34.80;;;24.70;;
54683;SDS011;40582;53.100;6.686;2023-05-07T00:47:54;32.38;;;23.40;;
54683;SDS011;40582;53.100;6.686;2023-05-07T00:50:23;31.25;;;22.80;;
54683;SDS011;40582;53.100;6.686;2023-05-07T00:52:49;33.30;;;23.10;;
54683;SDS011;40582;53.100;6.686;2023-05-07T00:55:15;26.42;;;21.27;;
54683;SDS011;40582;53.100;6.686;2023-05-07T00:57:41;34.72;;;22.30;;
54683;SDS011;40582;53.100;6.686;2023-05-07T01:00:07;33.30;;;23.95;;
54683;SDS011;40582;53.100;6.686;2023-05-07T01:02:35;31.15;;;23.13;;
54683;SDS011;40582;53.100;6.686;2023-05-07T01:05:01;32.05;;;24.92;;
54683;SDS011;40582;53.100;6.686;2023-05-07T01:07:31;35.50;;;26.48;;
54683;SDS011;40582;53.100;6.686;2023-05-07T01:09:58;32.33;;;25.33;;
54683;SDS011;40582;53.100;6.686;2023-05-07T01:12:24;30.48;;;22.25;;
54683;SDS011;40582;53.100;6.686;2023-05-07T01:14:51;28.88;;;22.98;;
54683;SDS011;40582;53.100;6.686;2023-05-07T01:17:17;35.40;;;24.50;;
54683;SDS011;40582;53.100;6.686;2023-05-07T01:19:43;31.58;;;25.70;;
54683;SDS011;40582;53.100;6.686;2023-05-07T01:22:09;38.97;;;25.95;;
54683;SDS011;40582;53.100;6.686;2023-05-07T01:24:36;33.83;;;25.88;;
54683;SDS011;40582;53.100;6.686;2023-05-07T01:27:03;34.40;;;27.77;;
54683;SDS011;40582;53.100;6.686;2023-05-07T01:29:29;33.15;;;26.10;;
54683;SDS011;40582;53.100;6.686;2023-05-07T01:31:58;37.20;;;27.95;;
54683;SDS011;40582;53.100;6.686;2023-05-07T01:34:25;36.20;;;28.35;;
54683;SDS011;40582;53.100;6.686;2023-05-07T01:36:54;47.78;;;29.30;;
54683;SDS011;40582;53.100;6.686;2023-05-07T01:39:21;40.95;;;31.25;;
54683;SDS011;40582;53.100;6.686;2023-05-07T01:41:49;39.33;;;28.83;;
54683;SDS011;40582;53.100;6.686;2023-05-07T01:44:15;41.35;;;30.90;;
54683;SDS011;40582;53.100;6.686;2023-05-07T01:46:43;41.13;;;30.63;;
54683;SDS011;40582;53.100;6.686;2023-05-07T01:49:09;38.67;;;30.33;;
54683;SDS011;40582;53.100;6.686;2023-05-07T01:51:35;36.42;;;29.75;;
54683;SDS011;40582;53.100;6.686;2023-05-07T01:54:01;39.13;;;29.15;;
54683;SDS011;40582;53.100;6.686;2023-05-07T01:56:27;45.65;;;33.90;;
54683;SDS011;40582;53.100;6.686;2023-05-07T01:58:53;36.50;;;29.70;;
54683;SDS011;40582;53.100;6.686;2023-05-07T02:01:18;43.88;;;30.35;;
54683;SDS011;40582;53.100;6.686;2023-05-07T02:03:44;40.72;;;30.92;;
54683;SDS011;40582;53.100;6.686;2023-05-07T02:06:10;44.35;;;33.80;;
54683;SDS011;40582;53.100;6.686;2023-05-07T02:08:35;43.95;;;32.00;;
54683;SDS011;40582;53.100;6.686;2023-05-07T02:11:01;51.83;;;35.90;;
54683;SDS011;40582;53.100;6.686;2023-05-07T02:13:31;45.40;;;31.48;;
54683;SDS011;40582;53.100;6.686;2023-05-07T02:15:59;48.72;;;34.22;;
54683;SDS011;40582;53.100;6.686;2023-05-07T02:18:25;48.80;;;33.00;;
54683;SDS011;40582;53.100;6.686;2023-05-07T02:20:51;44.47;;;32.80;;
54683;SDS011;40582;53.100;6.686;2023-05-07T02:23:16;39.40;;;28.95;;
54683;SDS011;40582;53.100;6.686;2023-05-07T02:25:42;43.95;;;32.33;;
54683;SDS011;40582;53.100;6.686;2023-05-07T02:28:08;47.38;;;33.67;;
54683;SDS011;40582;53.100;6.686;2023-05-07T02:30:33;46.67;;;33.08;;
54683;SDS011;40582;53.100;6.686;2023-05-07T02:32:59;44.78;;;31.80;;
54683;SDS011;40582;53.100;6.686;2023-05-07T02:35:25;49.05;;;33.28;;
54683;SDS011;40582;53.100;6.686;2023-05-07T02:37:51;53.40;;;35.63;;
54683;SDS011;40582;53.100;6.686;2023-05-07T02:40:16;47.28;;;34.50;;
54683;SDS011;40582;53.100;6.686;2023-05-07T02:42:42;49.95;;;35.67;;
54683;SDS011;40582;53.100;6.686;2023-05-07T02:45:08;46.35;;;30.92;;
54683;SDS011;40582;53.100;6.686;2023-05-07T02:47:34;50.38;;;35.33;;
54683;SDS011;40582;53.100;6.686;2023-05-07T02:50:00;48.17;;;34.63;;
54683;SDS011;40582;53.100;6.686;2023-05-07T02:52:25;53.97;;;34.88;;
54683;SDS011;40582;53.100;6.686;2023-05-07T02:54:51;53.33;;;35.80;;
54683;SDS011;40582;53.100;6.686;2023-05-07T02:57:17;49.80;;;33.38;;
54683;SDS011;40582;53.100;6.686;2023-05-07T02:59:42;51.88;;;35.08;;
54683;SDS011;40582;53.100;6.686;2023-05-07T03:02:08;50.45;;;35.30;;
54683;SDS011;40582;53.100;6.686;2023-05-07T03:04:34;58.13;;;38.50;;
54683;SDS011;40582;53.100;6.686;2023-05-07T03:07:00;59.92;;;38.20;;
54683;SDS011;40582;53.100;6.686;2023-05-07T03:09:26;48.78;;;35.88;;
54683;SDS011;40582;53.100;6.686;2023-05-07T03:11:51;53.58;;;36.72;;
54683;SDS011;40582;53.100;6.686;2023-05-07T03:14:17;51.95;;;36.55;;
54683;SDS011;40582;53.100;6.686;2023-05-07T03:16:43;52.50;;;36.15;;
54683;SDS011;40582;53.100;6.686;2023-05-07T03:19:08;56.95;;;38.42;;
54683;SDS011;40582;53.100;6.686;2023-05-07T03:21:34;57.97;;;39.17;;
54683;SDS011;40582;53.100;6.686;2023-05-07T03:24:00;53.35;;;36.58;;
54683;SDS011;40582;53.100;6.686;2023-05-07T03:26:25;52.53;;;35.05;;
54683;SDS011;40582;53.100;6.686;2023-05-07T03:28:51;49.83;;;35.83;;
54683;SDS011;40582;53.100;6.686;2023-05-07T03:31:17;51.70;;;36.03;;
54683;SDS011;40582;53.100;6.686;2023-05-07T03:33:56;52.28;;;36.50;;
54683;SDS011;40582;53.100;6.686;2023-05-07T03:36:22;58.20;;;39.67;;
54683;SDS011;40582;53.100;6.686;2023-05-07T03:38:49;63.90;;;40.22;;
54683;SDS011;40582;53.100;6.686;2023-05-07T03:41:15;55.15;;;37.65;;
54683;SDS011;40582;53.100;6.686;2023-05-07T03:43:41;56.40;;;39.33;;
54683;SDS011;40582;53.100;6.686;2023-05-07T03:46:06;52.25;;;37.78;;
54683;SDS011;40582;53.100;6.686;2023-05-07T03:48:32;53.22;;;38.50;;
54683;SDS011;40582;53.100;6.686;2023-05-07T03:50:58;51.30;;;37.35;;
54683;SDS011;40582;53.100;6.686;2023-05-07T03:53:24;49.47;;;36.10;;
54683;SDS011;40582;53.100;6.686;2023-05-07T03:55:50;49.92;;;37.08;;
54683;SDS011;40582;53.100;6.686;2023-05-07T03:58:16;55.13;;;38.17;;
54683;SDS011;40582;53.100;6.686;2023-05-07T04:00:41;57.10;;;39.28;;
54683;SDS011;40582;53.100;6.686;2023-05-07T04:03:07;54.35;;;37.70;;
54683;SDS011;40582;53.100;6.686;2023-05-07T04:05:33;54.58;;;38.25;;
54683;SDS011;40582;53.100;6.686;2023-05-07T04:07:59;59.30;;;39.22;;
54683;SDS011;40582;53.100;6.686;2023-05-07T04:10:26;49.08;;;37.30;;
54683;SDS011;40582;53.100;6.686;2023-05-07T04:12:53;54.92;;;37.30;;
54683;SDS011;40582;53.100;6.686;2023-05-07T04:15:19;52.15;;;36.45;;
54683;SDS011;40582;53.100;6.686;2023-05-07T04:17:45;51.15;;;36.42;;
54683;SDS011;40582;53.100;6.686;2023-05-07T04:20:13;48.65;;;34.70;;
54683;SDS011;40582;53.100;6.686;2023-05-07T04:22:40;54.28;;;35.33;;
54683;SDS011;40582;53.100;6.686;2023-05-07T04:25:06;45.90;;;34.17;;
54683;SDS011;40582;53.100;6.686;2023-05-07T04:27:34;42.97;;;32.80;;
54683;SDS011;40582;53.100;6.686;2023-05-07T04:30:00;45.38;;;33.85;;
54683;SDS011;40582;53.100;6.686;2023-05-07T04:32:27;49.10;;;34.95;;
54683;SDS011;40582;53.100;6.686;2023-05-07T04:34:54;41.80;;;31.67;;
54683;SDS011;40582;53.100;6.686;2023-05-07T04:37:20;47.55;;;34.60;;
54683;SDS011;40582;53.100;6.686;2023-05-07T04:39:46;42.17;;;32.92;;
54683;SDS011;40582;53.100;6.686;2023-05-07T04:42:15;48.75;;;34.10;;
54683;SDS011;40582;53.100;6.686;2023-05-07T04:44:42;48.97;;;33.30;;
54683;SDS011;40582;53.100;6.686;2023-05-07T04:47:09;40.78;;;30.85;;
54683;SDS011;40582;53.100;6.686;2023-05-07T04:49:35;48.60;;;32.50;;
54683;SDS011;40582;53.100;6.686;2023-05-07T04:52:00;40.45;;;31.05;;
54683;SDS011;40582;53.100;6.686;2023-05-07T04:54:26;38.90;;;30.08;;
54683;SDS011;40582;53.100;6.686;2023-05-07T04:56:52;41.25;;;30.02;;
54683;SDS011;40582;53.100;6.686;2023-05-07T04:59:17;41.85;;;31.60;;
54683;SDS011;40582;53.100;6.686;2023-05-07T05:01:43;40.88;;;31.33;;
54683;SDS011;40582;53.100;6.686;2023-05-07T05:04:09;39.05;;;30.10;;
54683;SDS011;40582;53.100;6.686;2023-05-07T05:06:35;42.58;;;28.65;;
54683;SDS011;40582;53.100;6.686;2023-05-07T05:09:00;40.38;;;29.40;;
54683;SDS011;40582;53.100;6.686;2023-05-07T05:11:26;36.83;;;30.92;;
54683;SDS011;40582;53.100;6.686;2023-05-07T05:13:52;40.97;;;30.80;;
54683;SDS011;40582;53.100;6.686;2023-05-07T05:16:17;35.65;;;27.92;;
54683;SDS011;40582;53.100;6.686;2023-05-07T05:18:43;39.45;;;30.33;;
54683;SDS011;40582;53.100;6.686;2023-05-07T05:21:09;44.75;;;30.80;;
54683;SDS011;40582;53.100;6.686;2023-05-07T05:23:34;39.25;;;29.17;;
54683;SDS011;40582;53.100;6.686;2023-05-07T05:26:00;36.95;;;30.52;;
54683;SDS011;40582;53.100;6.686;2023-05-07T05:28:26;37.00;;;28.05;;
54683;SDS011;40582;53.100;6.686;2023-05-07T05:30:53;44.72;;;30.95;;
54683;SDS011;40582;53.100;6.686;2023-05-07T05:33:19;37.05;;;29.75;;
54683;SDS011;40582;53.100;6.686;2023-05-07T05:35:44;42.55;;;29.13;;
54683;SDS011;40582;53.100;6.686;2023-05-07T05:38:10;38.08;;;29.67;;
54683;SDS011;40582;53.100;6.686;2023-05-07T05:40:36;34.78;;;27.98;;
54683;SDS011;40582;53.100;6.686;2023-05-07T05:43:01;35.08;;;27.30;;
54683;SDS011;40582;53.100;6.686;2023-05-07T05:45:27;38.72;;;28.88;;
54683;SDS011;40582;53.100;6.686;2023-05-07T05:47:53;36.00;;;28.52;;
54683;SDS011;40582;53.100;6.686;2023-05-07T05:50:20;30.90;;;25.85;;
54683;SDS011;40582;53.100;6.686;2023-05-07T05:52:46;35.13;;;26.38;;
54683;SDS011;40582;53.100;6.686;2023-05-07T05:55:12;32.55;;;25.10;;
54683;SDS011;40582;53.100;6.686;2023-05-07T05:57:38;32.83;;;26.02;;
54683;SDS011;40582;53.100;6.686;2023-05-07T06:00:04;34.85;;;25.98;;
54683;SDS011;40582;53.100;6.686;2023-05-07T06:02:30;33.40;;;27.83;;
54683;SDS011;40582;53.100;6.686;2023-05-07T06:04:55;36.60;;;27.35;;
54683;SDS011;40582;53.100;6.686;2023-05-07T06:07:21;32.13;;;26.83;;
54683;SDS011;40582;53.100;6.686;2023-05-07T06:09:47;33.35;;;25.83;;
54683;SDS011;40582;53.100;6.686;2023-05-07T06:12:12;34.67;;;27.75;;
54683;SDS011;40582;53.100;6.686;2023-05-07T06:14:38;36.30;;;26.65;;
54683;SDS011;40582;53.100;6.686;2023-05-07T06:17:04;33.35;;;25.77;;
54683;SDS011;40582;53.100;6.686;2023-05-07T06:19:30;34.63;;;26.33;;
54683;SDS011;40582;53.100;6.686;2023-05-07T06:21:56;34.67;;;27.10;;
54683;SDS011;40582;53.100;6.686;2023-05-07T06:24:21;31.83;;;23.98;;
54683;SDS011;40582;53.100;6.686;2023-05-07T06:26:47;32.65;;;25.15;;
54683;SDS011;40582;53.100;6.686;2023-05-07T06:29:13;31.65;;;26.67;;
54683;SDS011;40582;53.100;6.686;2023-05-07T06:31:39;30.55;;;25.50;;
54683;SDS011;40582;53.100;6.686;2023-05-07T06:34:04;27.48;;;24.23;;
54683;SDS011;40582;53.100;6.686;2023-05-07T06:36:30;33.58;;;26.95;;
54683;SDS011;40582;53.100;6.686;2023-05-07T06:38:56;37.85;;;26.58;;
54683;SDS011;40582;53.100;6.686;2023-05-07T06:41:22;34.20;;;26.77;;
54683;SDS011;40582;53.100;6.686;2023-05-07T06:43:47;31.65;;;23.98;;
54683;SDS011;40582;53.100;6.686;2023-05-07T06:46:13;33.38;;;27.15;;
54683;SDS011;40582;53.100;6.686;2023-05-07T06:48:40;33.38;;;25.70;;
54683;SDS011;40582;53.100;6.686;2023-05-07T06:51:05;33.25;;;26.30;;
54683;SDS011;40582;53.100;6.686;2023-05-07T06:53:31;31.30;;;25.30;;
54683;SDS011;40582;53.100;6.686;2023-05-07T06:55:56;33.75;;;25.33;;
54683;SDS011;40582;53.100;6.686;2023-05-07T06:58:22;32.15;;;24.88;;
54683;SDS011;40582;53.100;6.686;2023-05-07T07:00:48;31.17;;;25.52;;
54683;SDS011;40582;53.100;6.686;2023-05-07T07:03:14;30.50;;;24.42;;
54683;SDS011;40582;53.100;6.686;2023-05-07T07:05:40;34.58;;;26.95;;
54683;SDS011;40582;53.100;6.686;2023-05-07T07:08:06;32.92;;;26.30;;
54683;SDS011;40582;53.100;6.686;2023-05-07T07:10:32;32.97;;;25.65;;
54683;SDS011;40582;53.100;6.686;2023-05-07T07:12:57;37.53;;;26.83;;
54683;SDS011;40582;53.100;6.686;2023-05-07T07:15:23;36.70;;;25.88;;
54683;SDS011;40582;53.100;6.686;2023-05-07T07:17:50;32.72;;;26.92;;
54683;SDS011;40582;53.100;6.686;2023-05-07T07:20:16;32.08;;;25.33;;
54683;SDS011;40582;53.100;6.686;2023-05-07T07:22:42;31.58;;;25.45;;
54683;SDS011;40582;53.100;6.686;2023-05-07T07:25:07;33.08;;;23.67;;
54683;SDS011;40582;53.100;6.686;2023-05-07T07:27:33;33.88;;;26.02;;
54683;SDS011;40582;53.100;6.686;2023-05-07T07:30:00;33.83;;;25.52;;
54683;SDS011;40582;53.100;6.686;2023-05-07T07:32:25;36.97;;;26.65;;
54683;SDS011;40582;53.100;6.686;2023-05-07T07:34:51;37.55;;;27.58;;
54683;SDS011;40582;53.100;6.686;2023-05-07T07:37:16;33.05;;;25.95;;
54683;SDS011;40582;53.100;6.686;2023-05-07T07:39:42;31.70;;;25.75;;
54683;SDS011;40582;53.100;6.686;2023-05-07T07:42:08;34.92;;;27.15;;
54683;SDS011;40582;53.100;6.686;2023-05-07T07:44:34;32.45;;;25.52;;
54683;SDS011;40582;53.100;6.686;2023-05-07T07:47:00;34.05;;;24.90;;
54683;SDS011;40582;53.100;6.686;2023-05-07T07:49:26;31.88;;;26.17;;
54683;SDS011;40582;53.100;6.686;2023-05-07T07:51:52;33.78;;;27.63;;
54683;SDS011;40582;53.100;6.686;2023-05-07T07:54:17;35.10;;;26.52;;
54683;SDS011;40582;53.100;6.686;2023-05-07T07:56:43;39.00;;;27.45;;
54683;SDS011;40582;53.100;6.686;2023-05-07T07:59:09;29.70;;;25.70;;
54683;SDS011;40582;53.100;6.686;2023-05-07T08:01:34;32.75;;;25.05;;
54683;SDS011;40582;53.100;6.686;2023-05-07T08:04:00;35.58;;;27.13;;
54683;SDS011;40582;53.100;6.686;2023-05-07T08:06:28;33.90;;;26.17;;
54683;SDS011;40582;53.100;6.686;2023-05-07T08:08:54;36.42;;;25.83;;
54683;SDS011;40582;53.100;6.686;2023-05-07T08:11:20;33.10;;;23.77;;
54683;SDS011;40582;53.100;6.686;2023-05-07T08:13:46;35.65;;;26.30;;
54683;SDS011;40582;53.100;6.686;2023-05-07T08:16:12;35.45;;;25.00;;
54683;SDS011;40582;53.100;6.686;2023-05-07T08:18:38;32.10;;;26.02;;
54683;SDS011;40582;53.100;6.686;2023-05-07T08:21:03;35.63;;;24.33;;
54683;SDS011;40582;53.100;6.686;2023-05-07T08:23:29;31.55;;;25.90;;
54683;SDS011;40582;53.100;6.686;2023-05-07T08:25:55;32.28;;;24.95;;
54683;SDS011;40582;53.100;6.686;2023-05-07T08:28:21;30.00;;;24.50;;
54683;SDS011;40582;53.100;6.686;2023-05-07T08:30:47;31.13;;;25.63;;
54683;SDS011;40582;53.100;6.686;2023-05-07T08:33:12;35.38;;;24.33;;
54683;SDS011;40582;53.100;6.686;2023-05-07T08:35:38;30.75;;;25.15;;
54683;SDS011;40582;53.100;6.686;2023-05-07T08:38:04;28.25;;;23.35;;
54683;SDS011;40582;53.100;6.686;2023-05-07T08:40:30;28.13;;;23.58;;
54683;SDS011;40582;53.100;6.686;2023-05-07T08:43:04;28.90;;;23.33;;
54683;SDS011;40582;53.100;6.686;2023-05-07T08:45:31;27.55;;;23.02;;
54683;SDS011;40582;53.100;6.686;2023-05-07T08:47:59;29.85;;;23.58;;
54683;SDS011;40582;53.100;6.686;2023-05-07T08:50:27;27.13;;;22.25;;
54683;SDS011;40582;53.100;6.686;2023-05-07T08:52:53;29.70;;;22.80;;
54683;SDS011;40582;53.100;6.686;2023-05-07T08:55:19;31.60;;;23.17;;
54683;SDS011;40582;53.100;6.686;2023-05-07T08:57:45;26.73;;;22.50;;
54683;SDS011;40582;53.100;6.686;2023-05-07T09:00:12;25.17;;;21.10;;
54683;SDS011;40582;53.100;6.686;2023-05-07T09:02:38;25.50;;;20.80;;
54683;SDS011;40582;53.100;6.686;2023-05-07T09:05:04;28.63;;;22.58;;
54683;SDS011;40582;53.100;6.686;2023-05-07T09:07:30;29.15;;;22.58;;
54683;SDS011;40582;53.100;6.686;2023-05-07T09:09:56;27.95;;;22.70;;
54683;SDS011;40582;53.100;6.686;2023-05-07T09:12:22;29.40;;;21.50;;
54683;SDS011;40582;53.100;6.686;2023-05-07T09:14:49;25.58;;;21.92;;
54683;SDS011;40582;53.100;6.686;2023-05-07T09:17:15;29.98;;;23.73;;
54683;SDS011;40582;53.100;6.686;2023-05-07T09:19:41;29.83;;;22.92;;
54683;SDS011;40582;53.100;6.686;2023-05-07T09:22:12;29.70;;;22.95;;
54683;SDS011;40582;53.100;6.686;2023-05-07T09:24:38;27.25;;;21.42;;
54683;SDS011;40582;53.100;6.686;2023-05-07T09:27:04;26.30;;;22.67;;
54683;SDS011;40582;53.100;6.686;2023-05-07T09:29:31;26.67;;;20.58;;
54683;SDS011;40582;53.100;6.686;2023-05-07T09:32:03;23.35;;;20.52;;
54683;SDS011;40582;53.100;6.686;2023-05-07T09:34:33;24.23;;;21.02;;
54683;SDS011;40582;53.100;6.686;2023-05-07T09:37:02;27.90;;;22.55;;
54683;SDS011;40582;53.100;6.686;2023-05-07T09:39:38;27.90;;;21.15;;
54683;SDS011;40582;53.100;6.686;2023-05-07T09:42:05;25.08;;;20.92;;
54683;SDS011;40582;53.100;6.686;2023-05-07T09:44:32;24.20;;;20.45;;
54683;SDS011;40582;53.100;6.686;2023-05-07T09:46:58;25.35;;;20.75;;
54683;SDS011;40582;53.100;6.686;2023-05-07T09:49:26;27.48;;;20.73;;
54683;SDS011;40582;53.100;6.686;2023-05-07T09:51:57;24.95;;;20.77;;
54683;SDS011;40582;53.100;6.686;2023-05-07T09:54:25;22.02;;;18.15;;
54683;SDS011;40582;53.100;6.686;2023-05-07T09:56:53;23.92;;;19.30;;
54683;SDS011;40582;53.100;6.686;2023-05-07T09:59:20;23.70;;;18.02;;
54683;SDS011;40582;53.100;6.686;2023-05-07T10:01:47;26.35;;;19.85;;
54683;SDS011;40582;53.100;6.686;2023-05-07T10:04:14;21.65;;;19.23;;
54683;SDS011;40582;53.100;6.686;2023-05-07T10:06:41;24.45;;;19.92;;
54683;SDS011;40582;53.100;6.686;2023-05-07T10:09:09;22.65;;;19.27;;
54683;SDS011;40582;53.100;6.686;2023-05-07T10:11:36;24.30;;;19.48;;
54683;SDS011;40582;53.100;6.686;2023-05-07T10:14:02;19.25;;;17.08;;
54683;SDS011;40582;53.100;6.686;2023-05-07T10:16:31;23.98;;;18.65;;
54683;SDS011;40582;53.100;6.686;2023-05-07T10:19:02;26.90;;;19.30;;
54683;SDS011;40582;53.100;6.686;2023-05-07T10:21:32;23.73;;;18.35;;
54683;SDS011;40582;53.100;6.686;2023-05-07T10:26:38;19.75;;;17.65;;
54683;SDS011;40582;53.100;6.686;2023-05-07T10:34:58;19.38;;;17.27;;
54683;SDS011;40582;53.100;6.686;2023-05-07T10:37:27;19.35;;;17.35;;
54683;SDS011;40582;53.100;6.686;2023-05-07T10:39:54;20.55;;;16.45;;
54683;SDS011;40582;53.100;6.686;2023-05-07T10:42:19;20.55;;;16.35;;
54683;SDS011;40582;53.100;6.686;2023-05-07T10:44:45;20.85;;;17.35;;
54683;SDS011;40582;53.100;6.686;2023-05-07T10:47:12;20.42;;;16.80;;
54683;SDS011;40582;53.100;6.686;2023-05-07T10:52:20;21.02;;;16.50;;
54683;SDS011;40582;53.100;6.686;2023-05-07T10:57:42;18.88;;;16.10;;
54683;SDS011;40582;53.100;6.686;2023-05-07T11:00:56;18.00;;;16.20;;
54683;SDS011;40582;53.100;6.686;2023-05-07T11:05:27;22.08;;;16.67;;
54683;SDS011;40582;53.100;6.686;2023-05-07T11:07:56;19.30;;;16.30;;
54683;SDS011;40582;53.100;6.686;2023-05-07T11:10:26;18.08;;;15.98;;
54683;SDS011;40582;53.100;6.686;2023-05-07T11:16:16;17.45;;;15.65;;
54683;SDS011;40582;53.100;6.686;2023-05-07T11:18:52;17.25;;;15.55;;
54683;SDS011;40582;53.100;6.686;2023-05-07T11:21:38;16.88;;;15.07;;
54683;SDS011;40582;53.100;6.686;2023-05-07T11:26:48;18.50;;;16.50;;
54683;SDS011;40582;53.100;6.686;2023-05-07T11:29:15;19.88;;;15.38;;
54683;SDS011;40582;53.100;6.686;2023-05-07T11:31:52;18.90;;;15.70;;
54683;SDS011;40582;53.100;6.686;2023-05-07T11:34:22;17.15;;;15.32;;
54683;SDS011;40582;53.100;6.686;2023-05-07T11:36:49;18.77;;;14.95;;
54683;SDS011;40582;53.100;6.686;2023-05-07T11:39:28;19.88;;;15.00;;
54683;SDS011;40582;53.100;6.686;2023-05-07T11:44:45;15.73;;;14.05;;
54683;SDS011;40582;53.100;6.686;2023-05-07T11:47:19;17.17;;;14.70;;
54683;SDS011;40582;53.100;6.686;2023-05-07T11:49:49;18.20;;;15.38;;
54683;SDS011;40582;53.100;6.686;2023-05-07T11:52:17;22.88;;;16.50;;
54683;SDS011;40582;53.100;6.686;2023-05-07T11:57:15;17.73;;;15.77;;
54683;SDS011;40582;53.100;6.686;2023-05-07T11:59:41;17.27;;;15.48;;
54683;SDS011;40582;53.100;6.686;2023-05-07T12:02:09;17.73;;;15.57;;
54683;SDS011;40582;53.100;6.686;2023-05-07T12:04:35;17.65;;;15.70;;
54683;SDS011;40582;53.100;6.686;2023-05-07T12:07:01;17.52;;;14.93;;
54683;SDS011;40582;53.100;6.686;2023-05-07T12:09:26;17.95;;;15.20;;
54683;SDS011;40582;53.100;6.686;2023-05-07T12:11:52;18.33;;;15.23;;
54683;SDS011;40582;53.100;6.686;2023-05-07T12:14:18;17.52;;;15.38;;
54683;SDS011;40582;53.100;6.686;2023-05-07T12:16:44;21.30;;;15.32;;
54683;SDS011;40582;53.100;6.686;2023-05-07T12:19:10;23.25;;;14.52;;
54683;SDS011;40582;53.100;6.686;2023-05-07T12:21:40;19.02;;;14.50;;
54683;SDS011;40582;53.100;6.686;2023-05-07T12:24:06;16.30;;;13.85;;
54683;SDS011;40582;53.100;6.686;2023-05-07T12:26:36;15.57;;;13.90;;
54683;SDS011;40582;53.100;6.686;2023-05-07T12:29:03;17.30;;;14.82;;
54683;SDS011;40582;53.100;6.686;2023-05-07T12:31:28;16.55;;;14.38;;
54683;SDS011;40582;53.100;6.686;2023-05-07T12:33:54;16.98;;;14.80;;
54683;SDS011;40582;53.100;6.686;2023-05-07T12:36:20;16.45;;;14.75;;
54683;SDS011;40582;53.100;6.686;2023-05-07T12:38:46;19.05;;;14.82;;
54683;SDS011;40582;53.100;6.686;2023-05-07T12:41:15;16.40;;;14.68;;
54683;SDS011;40582;53.100;6.686;2023-05-07T12:43:43;15.52;;;13.88;;
54683;SDS011;40582;53.100;6.686;2023-05-07T12:46:10;17.27;;;14.23;;
54683;SDS011;40582;53.100;6.686;2023-05-07T12:48:38;16.33;;;14.45;;
54683;SDS011;40582;53.100;6.686;2023-05-07T12:51:10;15.65;;;14.02;;
54683;SDS011;40582;53.100;6.686;2023-05-07T12:53:41;16.95;;;13.50;;
54683;SDS011;40582;53.100;6.686;2023-05-07T12:56:07;16.88;;;15.07;;
54683;SDS011;40582;53.100;6.686;2023-05-07T12:58:34;15.95;;;14.25;;
54683;SDS011;40582;53.100;6.686;2023-05-07T13:01:04;18.08;;;14.05;;
54683;SDS011;40582;53.100;6.686;2023-05-07T13:03:35;15.95;;;14.30;;
54683;SDS011;40582;53.100;6.686;2023-05-07T13:06:02;16.00;;;14.23;;
54683;SDS011;40582;53.100;6.686;2023-05-07T13:08:36;15.85;;;14.05;;
54683;SDS011;40582;53.100;6.686;2023-05-07T13:11:06;15.88;;;14.10;;
54683;SDS011;40582;53.100;6.686;2023-05-07T13:13:33;20.23;;;13.82;;
54683;SDS011;40582;53.100;6.686;2023-05-07T13:16:00;14.55;;;13.00;;
54683;SDS011;40582;53.100;6.686;2023-05-07T13:18:28;16.52;;;13.77;;
54683;SDS011;40582;53.100;6.686;2023-05-07T13:20:55;15.60;;;13.90;;
54683;SDS011;40582;53.100;6.686;2023-05-07T13:23:20;16.17;;;14.57;;
54683;SDS011;40582;53.100;6.686;2023-05-07T13:25:47;15.48;;;13.88;;
54683;SDS011;40582;53.100;6.686;2023-05-07T13:28:13;15.57;;;13.48;;
54683;SDS011;40582;53.100;6.686;2023-05-07T13:30:39;15.75;;;14.15;;
54683;SDS011;40582;53.100;6.686;2023-05-07T13:33:08;14.77;;;13.18;;
54683;SDS011;40582;53.100;6.686;2023-05-07T13:35:34;14.75;;;13.23;;
54683;SDS011;40582;53.100;6.686;2023-05-07T13:38:00;14.48;;;12.52;;
54683;SDS011;40582;53.100;6.686;2023-05-07T13:40:26;14.35;;;12.93;;
54683;SDS011;40582;53.100;6.686;2023-05-07T13:42:52;15.05;;;13.55;;
54683;SDS011;40582;53.100;6.686;2023-05-07T13:45:18;14.30;;;12.80;;
54683;SDS011;40582;53.100;6.686;2023-05-07T13:47:45;13.43;;;11.73;;
54683;SDS011;40582;53.100;6.686;2023-05-07T13:50:12;17.30;;;12.70;;
54683;SDS011;40582;53.100;6.686;2023-05-07T13:52:41;13.50;;;12.15;;
54683;SDS011;40582;53.100;6.686;2023-05-07T13:55:17;15.18;;;13.57;;
54683;SDS011;40582;53.100;6.686;2023-05-07T13:57:43;14.35;;;12.85;;
54683;SDS011;40582;53.100;6.686;2023-05-07T14:00:09;15.15;;;12.70;;
54683;SDS011;40582;53.100;6.686;2023-05-07T14:02:36;14.88;;;12.93;;
54683;SDS011;40582;53.100;6.686;2023-05-07T14:05:01;16.25;;;12.45;;
54683;SDS011;40582;53.100;6.686;2023-05-07T14:07:27;16.75;;;13.48;;
54683;SDS011;40582;53.100;6.686;2023-05-07T14:09:53;14.65;;;12.60;;
54683;SDS011;40582;53.100;6.686;2023-05-07T14:12:19;13.43;;;12.15;;
54683;SDS011;40582;53.100;6.686;2023-05-07T14:14:45;17.42;;;12.93;;
54683;SDS011;40582;53.100;6.686;2023-05-07T14:17:12;14.98;;;12.57;;
54683;SDS011;40582;53.100;6.686;2023-05-07T14:19:37;15.07;;;12.38;;
54683;SDS011;40582;53.100;6.686;2023-05-07T14:22:03;15.90;;;12.48;;
54683;SDS011;40582;53.100;6.686;2023-05-07T14:24:29;14.02;;;12.43;;
54683;SDS011;40582;53.100;6.686;2023-05-07T14:26:55;13.68;;;12.27;;
54683;SDS011;40582;53.100;6.686;2023-05-07T14:29:21;15.15;;;11.88;;
54683;SDS011;40582;53.100;6.686;2023-05-07T14:31:47;14.50;;;13.10;;
54683;SDS011;40582;53.100;6.686;2023-05-07T14:34:13;14.45;;;12.00;;
54683;SDS011;40582;53.100;6.686;2023-05-07T14:36:41;15.27;;;12.45;;
54683;SDS011;40582;53.100;6.686;2023-05-07T14:39:09;15.02;;;12.25;;
54683;SDS011;40582;53.100;6.686;2023-05-07T14:41:35;13.25;;;11.98;;
54683;SDS011;40582;53.100;6.686;2023-05-07T14:44:00;14.75;;;11.82;;
54683;SDS011;40582;53.100;6.686;2023-05-07T14:46:28;14.02;;;12.70;;